Time;durP1;ratioP1;P1;durP2;ratioP2;P2;SDS_P1;SDS_P2;PMS_P1;PMS_P2;Temp;Humidity;BMP_temperature;BMP_pressure;BME280_temperature;BME280_humidity;BME280_pressure;Samples;Min_cycle;Max_cycle;Signal;HPM_P1;HPM_P2
2024/01/13 00:00:31;;;;;;;31.43;10.57;;;;;-1.40;97156.00;;;;8275351;28;20230;-74
2024/01/13 00:04:36;;;;;;;25.47;8.83;;;;;-1.40;97155.00;;;;8278078;28;20230;-72
2024/01/13 00:08:39;;;;;;;24.57;8.07;;;;;-1.40;97161.00;;;;8279191;28;20776;-74
2024/01/13 00:12:42;;;;;;;22.83;8.17;;;;;-1.50;97154.00;;;;8280586;28;20199;-70
2024/01/13 00:16:45;;;;;;;20.57;8.37;;;;;-1.50;97158.00;;;;8275325;28;20825;-72
2024/01/13 00:20:50;;;;;;;20.07;6.83;;;;;-1.50;97151.00;;;;8278416;28;21041;-71
2024/01/13 00:24:53;;;;;;;17.63;7.23;;;;;-1.60;97158.00;;;;8273559;28;20808;-73
2024/01/13 00:28:56;;;;;;;17.27;7.27;;;;;-1.60;97158.00;;;;8276281;28;20210;-70
2024/01/13 00:32:59;;;;;;;22.07;7.70;;;;;-1.70;97159.00;;;;8274763;28;20206;-69
2024/01/13 00:37:05;;;;;;;23.03;7.47;;;;;-1.70;97155.00;;;;8279627;28;20757;-72
2024/01/13 00:41:08;;;;;;;20.17;7.00;;;;;-1.70;97149.00;;;;8280015;28;20232;-73
2024/01/13 00:45:12;;;;;;;13.63;5.07;;;;;-1.70;97138.00;;;;8277733;28;20205;-71
2024/01/13 00:49:15;;;;;;;19.10;7.27;;;;;-1.70;97131.00;;;;8278231;28;20284;-70
2024/01/13 00:53:20;;;;;;;7.53;3.97;;;;;-1.70;97136.00;;;;8280611;28;20203;-71
2024/01/13 00:57:25;;;;;;;20.93;7.20;;;;;-1.80;97146.00;;;;8280433;28;20793;-72
2024/01/13 01:01:28;;;;;;;15.90;5.90;;;;;-1.80;97144.00;;;;8274474;28;20229;-72
2024/01/13 01:05:32;;;;;;;18.83;6.90;;;;;-1.90;97155.00;;;;8277791;28;20226;-72
2024/01/13 01:09:36;;;;;;;24.23;7.80;;;;;-1.80;97138.00;;;;8278603;28;20210;-72
2024/01/13 01:13:41;;;;;;;19.23;6.60;;;;;-1.80;97130.00;;;;8276623;28;20210;-72
2024/01/13 01:17:44;;;;;;;19.67;7.87;;;;;-1.80;97141.00;;;;8272620;28;20207;-72
2024/01/13 01:21:47;;;;;;;19.87;7.13;;;;;-1.80;97144.00;;;;8280714;28;20222;-70
2024/01/13 01:25:52;;;;;;;18.53;7.70;;;;;-1.80;97138.00;;;;8273470;28;20213;-72
2024/01/13 01:29:55;;;;;;;21.53;7.83;;;;;-1.80;97127.00;;;;8276878;28;20205;-72
2024/01/13 01:33:58;;;;;;;20.93;8.00;;;;;-1.80;97125.00;;;;8280083;28;20209;-71
2024/01/13 01:38:01;;;;;;;20.43;7.33;;;;;-1.80;97123.00;;;;8276967;28;21033;-70
2024/01/13 01:42:06;;;;;;;17.20;7.23;;;;;-1.70;97118.00;;;;8274768;28;20275;-71
2024/01/13 01:46:12;;;;;;;19.70;7.60;;;;;-1.70;97112.00;;;;8280428;28;20294;-68
2024/01/13 01:50:16;;;;;;;16.67;6.70;;;;;-1.70;97109.00;;;;8279008;28;20558;-68
2024/01/13 01:54:20;;;;;;;18.47;6.53;;;;;-1.70;97109.00;;;;8278899;28;20280;-71
2024/01/13 01:58:24;;;;;;;17.90;7.23;;;;;-1.60;97117.00;;;;8261540;28;20524;-70
2024/01/13 02:02:37;;;;;;;17.70;6.50;;;;;-1.60;97112.00;;;;8270761;28;20229;-70
2024/01/13 02:06:40;;;;;;;19.30;7.17;;;;;-1.70;97105.00;;;;8269538;28;20218;-68
2024/01/13 02:10:43;;;;;;;23.33;8.30;;;;;-1.70;97109.00;;;;8270406;28;20238;-67
2024/01/13 02:14:48;;;;;;;21.40;7.47;;;;;-1.70;97105.00;;;;8265813;28;20205;-67
2024/01/13 02:18:51;;;;;;;24.07;8.50;;;;;-1.70;97103.00;;;;8266585;28;20209;-70
2024/01/13 02:22:56;;;;;;;21.67;7.90;;;;;-1.70;97099.00;;;;8272306;28;20257;-67
2024/01/13 02:26:59;;;;;;;21.03;7.40;;;;;-1.70;97095.00;;;;8262553;28;20212;-71
2024/01/13 02:31:02;;;;;;;17.73;6.93;;;;;-1.60;97093.00;;;;8265100;28;20304;-69
2024/01/13 02:35:06;;;;;;;20.90;6.20;;;;;-1.60;97084.00;;;;8260888;28;20212;-70
2024/01/13 02:39:10;;;;;;;18.33;7.17;;;;;-1.70;97083.00;;;;8268610;28;20202;-68
2024/01/13 02:43:13;;;;;;;19.27;7.03;;;;;-1.70;97075.00;;;;8263166;28;20281;-67
2024/01/13 02:47:16;;;;;;;17.83;7.30;;;;;-1.80;97077.00;;;;8265769;28;20206;-69
2024/01/13 02:51:20;;;;;;;17.40;6.43;;;;;-1.90;97073.00;;;;8264107;28;20328;-67
2024/01/13 02:55:24;;;;;;;23.20;8.00;;;;;-1.90;97060.00;;;;8260815;28;20202;-68
2024/01/13 02:59:27;;;;;;;20.50;7.03;;;;;-1.90;97052.00;;;;8266117;28;20289;-67
2024/01/13 03:03:31;;;;;;;16.33;6.63;;;;;-1.80;97048.00;;;;8298738;22;20328;-69
2024/01/13 03:07:34;;;;;;;17.37;6.70;;;;;-1.80;97047.00;;;;8283528;28;20197;-70
2024/01/13 03:11:38;;;;;;;16.43;6.70;;;;;-1.80;97038.00;;;;8282240;28;20309;-69
2024/01/13 03:15:42;;;;;;;15.77;6.47;;;;;-1.80;97033.00;;;;8284772;28;20275;-69
2024/01/13 03:19:45;;;;;;;19.87;7.40;;;;;-1.80;97028.00;;;;8284467;28;21034;-69
2024/01/13 03:23:49;;;;;;;19.77;7.23;;;;;-1.80;97020.00;;;;8282923;28;20234;-69
2024/01/13 03:27:53;;;;;;;16.00;6.47;;;;;-1.80;97008.00;;;;8283087;28;20943;-66
2024/01/13 03:31:56;;;;;;;19.13;7.47;;;;;-1.80;97016.00;;;;8284091;28;20202;-69
2024/01/13 03:35:59;;;;;;;15.50;6.23;;;;;-1.80;96998.00;;;;8285347;28;20213;-68
2024/01/13 03:40:03;;;;;;;17.20;6.37;;;;;-1.90;97002.00;;;;8283717;28;20234;-68
2024/01/13 03:44:07;;;;;;;20.53;8.00;;;;;-1.90;97008.00;;;;8284027;28;20333;-69
2024/01/13 03:48:11;;;;;;;20.33;6.77;;;;;-1.90;97012.00;;;;8284178;28;20198;-69
2024/01/13 03:52:14;;;;;;;17.73;6.60;;;;;-1.90;97007.00;;;;8289126;28;20208;-68
2024/01/13 03:56:17;;;;;;;16.57;6.73;;;;;-1.90;96990.00;;;;8288642;28;20210;-68
2024/01/13 04:00:22;;;;;;;19.23;7.13;;;;;-1.80;96979.00;;;;8294660;28;20617;-69
2024/01/13 04:04:25;;;;;;;23.53;7.13;;;;;-1.80;96986.00;;;;8295782;28;20226;-71
2024/01/13 04:08:28;;;;;;;20.77;8.07;;;;;-1.70;96986.00;;;;8293277;28;20233;-67
2024/01/13 04:12:31;;;;;;;19.47;8.10;;;;;-1.80;96983.00;;;;8294262;28;20212;-69
2024/01/13 04:16:36;;;;;;;20.53;7.67;;;;;-1.80;96981.00;;;;8302111;28;20216;-68
2024/01/13 04:20:39;;;;;;;24.50;8.80;;;;;-1.80;96980.00;;;;8303803;28;20209;-69
2024/01/13 04:24:42;;;;;;;18.10;7.83;;;;;-1.70;96988.00;;;;8301288;28;20776;-69
2024/01/13 04:28:45;;;;;;;19.07;6.73;;;;;-1.70;96983.00;;;;8303147;28;20288;-69
2024/01/13 04:32:50;;;;;;;23.17;8.43;;;;;-1.80;96971.00;;;;8300738;28;20293;-70
2024/01/13 04:36:53;;;;;;;18.03;7.63;;;;;-1.90;96975.00;;;;8300768;28;20198;-71
2024/01/13 04:40:56;;;;;;;20.30;7.30;;;;;-1.90;96978.00;;;;8298187;28;20313;-71
2024/01/13 04:45:00;;;;;;;19.07;7.30;;;;;-2.00;96983.00;;;;8301185;28;20699;-70
2024/01/13 04:49:04;;;;;;;18.57;7.87;;;;;-2.00;96987.00;;;;8301612;28;20288;-70
2024/01/13 04:53:08;;;;;;;23.13;7.53;;;;;-2.00;96975.00;;;;8299537;28;20268;-70
2024/01/13 04:57:11;;;;;;;17.70;6.93;;;;;-2.00;96963.00;;;;8301077;28;20233;-68
2024/01/13 05:01:15;;;;;;;17.60;7.73;;;;;-2.00;96976.00;;;;8299050;28;20517;-69
2024/01/13 05:05:20;;;;;;;20.83;7.23;;;;;-1.90;96962.00;;;;8295103;28;20227;-71
2024/01/13 05:09:23;;;;;;;19.37;7.90;;;;;-1.90;96964.00;;;;8300186;28;20208;-69
2024/01/13 05:13:26;;;;;;;20.23;7.43;;;;;-1.80;96956.00;;;;8299024;28;20392;-70
2024/01/13 05:17:29;;;;;;;18.43;7.47;;;;;-1.90;96951.00;;;;8299445;28;20198;-71
2024/01/13 05:21:34;;;;;;;14.47;6.50;;;;;-1.90;96949.00;;;;8297009;28;20228;-71
2024/01/13 05:25:37;;;;;;;19.73;7.03;;;;;-1.90;96941.00;;;;8298184;28;20288;-67
2024/01/13 05:29:40;;;;;;;23.87;8.13;;;;;-1.90;96925.00;;;;8299593;28;20205;-67
2024/01/13 05:33:43;;;;;;;15.37;7.47;;;;;-1.90;96924.00;;;;8298824;28;20263;-70
2024/01/13 05:37:48;;;;;;;19.03;7.13;;;;;-1.90;96930.00;;;;8299638;28;20742;-69
2024/01/13 05:41:51;;;;;;;18.90;7.37;;;;;-1.90;96933.00;;;;8296781;28;20232;-69
2024/01/13 05:45:54;;;;;;;17.83;7.00;;;;;-1.90;96926.00;;;;8299275;28;20206;-69
2024/01/13 05:49:57;;;;;;;19.57;7.63;;;;;-1.90;96921.00;;;;8296279;28;20210;-70
2024/01/13 05:54:02;;;;;;;20.70;6.93;;;;;-1.90;96928.00;;;;8298770;28;20674;-68
2024/01/13 05:58:05;;;;;;;17.00;6.67;;;;;-1.90;96923.00;;;;8298301;28;20209;-70
2024/01/13 06:02:08;;;;;;;21.70;6.83;;;;;-1.90;96925.00;;;;8298971;28;20229;-69
2024/01/13 06:06:12;;;;;;;18.30;7.20;;;;;-1.90;96921.00;;;;8294784;28;20206;-70
2024/01/13 06:10:17;;;;;;;20.23;7.43;;;;;-1.90;96923.00;;;;8299306;28;20236;-70
2024/01/13 06:14:21;;;;;;;16.67;7.27;;;;;-2.00;96915.00;;;;8296718;28;20678;-70
2024/01/13 06:18:24;;;;;;;17.90;7.13;;;;;-2.00;96900.00;;;;8294597;28;20201;-72
2024/01/13 06:22:27;;;;;;;15.03;5.57;;;;;-1.90;96897.00;;;;8291976;28;20631;-68
2024/01/13 06:26:32;;;;;;;13.33;6.17;;;;;-1.80;96877.00;;;;8292309;28;20216;-68
2024/01/13 06:30:35;;;;;;;17.40;6.47;;;;;-1.80;96885.00;;;;8293835;28;20202;-68
2024/01/13 06:34:39;;;;;;;18.03;6.83;;;;;-1.80;96881.00;;;;8296647;28;20209;-69
2024/01/13 06:38:42;;;;;;;17.70;7.20;;;;;-1.80;96874.00;;;;8293949;28;20201;-69
2024/01/13 06:42:46;;;;;;;24.00;8.03;;;;;-1.80;96879.00;;;;8294958;28;20217;-68
2024/01/13 06:46:50;;;;;;;20.57;7.63;;;;;-1.80;96869.00;;;;8292420;28;20215;-67
2024/01/13 06:50:53;;;;;;;20.63;8.17;;;;;-1.80;96861.00;;;;8292122;28;20561;-67
2024/01/13 06:54:58;;;;;;;23.10;7.57;;;;;-1.80;96866.00;;;;8291813;28;20292;-70
2024/01/13 06:59:02;;;;;;;19.53;7.17;;;;;-1.80;96878.00;;;;8292772;28;20566;-67
2024/01/13 07:03:05;;;;;;;21.00;7.13;;;;;-1.70;96878.00;;;;8293347;28;20248;-68
2024/01/13 07:07:09;;;;;;;18.30;7.20;;;;;-1.70;96878.00;;;;8295404;28;20269;-68
2024/01/13 07:11:13;;;;;;;18.17;6.90;;;;;-1.70;96888.00;;;;8292897;28;20205;-70
2024/01/13 07:15:17;;;;;;;20.73;7.47;;;;;-1.70;96893.00;;;;8291462;28;20198;-69
2024/01/13 07:19:21;;;;;;;21.40;7.70;;;;;-1.70;96881.00;;;;8291741;28;20210;-68
2024/01/13 07:23:24;;;;;;;16.27;6.13;;;;;-1.70;96882.00;;;;8288268;28;20291;-69
2024/01/13 07:27:27;;;;;;;18.43;7.47;;;;;-1.80;96879.00;;;;8293663;28;20274;-69
2024/01/13 07:31:32;;;;;;;16.43;6.47;;;;;-1.70;96879.00;;;;8294587;28;20236;-69
2024/01/13 07:35:36;;;;;;;16.83;5.80;;;;;-1.70;96874.00;;;;8297508;28;20209;-67
2024/01/13 07:39:39;;;;;;;14.57;6.27;;;;;-1.70;96870.00;;;;8294500;28;21933;-66
2024/01/13 07:43:44;;;;;;;19.03;6.73;;;;;-1.70;96852.00;;;;8298624;28;20310;-68
2024/01/13 07:47:49;;;;;;;16.00;5.97;;;;;-1.60;96837.00;;;;8299662;28;20919;-68
2024/01/13 07:51:54;;;;;;;13.63;6.20;;;;;-1.50;96835.00;;;;8297134;28;21278;-66
2024/01/13 07:55:57;;;;;;;15.73;5.03;;;;;-1.50;96834.00;;;;8299824;28;20228;-70
2024/01/13 08:00:00;;;;;;;22.63;6.97;;;;;-1.60;96831.00;;;;8296652;28;20210;-68
2024/01/13 08:04:06;;;;;;;18.60;6.67;;;;;-1.60;96836.00;;;;8296198;28;20235;-66
2024/01/13 08:08:09;;;;;;;14.53;6.17;;;;;-1.60;96834.00;;;;8293006;28;20203;-69
2024/01/13 08:12:12;;;;;;;19.83;6.73;;;;;-1.50;96851.00;;;;8295093;28;20209;-70
2024/01/13 08:16:15;;;;;;;17.53;6.83;;;;;-1.50;96853.00;;;;8294168;28;20214;-69
2024/01/13 08:20:20;;;;;;;19.07;7.03;;;;;-1.40;96848.00;;;;8294910;28;20221;-66
2024/01/13 08:24:23;;;;;;;18.10;6.60;;;;;-1.30;96843.00;;;;8296142;28;20776;-66
2024/01/13 08:28:27;;;;;;;17.53;6.43;;;;;-1.40;96852.00;;;;8293368;28;20260;-67
2024/01/13 08:32:30;;;;;;;14.87;5.73;;;;;-1.30;96856.00;;;;8293971;28;20683;-69
2024/01/13 08:36:34;;;;;;;14.70;6.50;;;;;-1.30;96841.00;;;;8295465;28;20633;-69
2024/01/13 08:40:38;;;;;;;14.63;6.63;;;;;-1.30;96849.00;;;;8296519;28;20293;-68
2024/01/13 08:44:41;;;;;;;13.17;5.60;;;;;-1.20;96834.00;;;;8291410;28;20231;-67
2024/01/13 08:48:44;;;;;;;19.50;6.50;;;;;-1.30;96827.00;;;;8292429;28;20208;-70
2024/01/13 08:52:51;;;;;;;12.50;5.77;;;;;-1.30;96846.00;;;;8293503;28;20205;-69
2024/01/13 08:56:55;;;;;;;15.03;5.77;;;;;-1.30;96845.00;;;;8292223;28;20866;-67
2024/01/13 09:00:58;;;;;;;15.20;6.47;;;;;-1.30;96841.00;;;;8297193;28;22311;-68
2024/01/13 09:05:01;;;;;;;11.17;5.57;;;;;-1.30;96840.00;;;;8295299;28;20228;-65
2024/01/13 09:09:06;;;;;;;9.03;5.27;;;;;-1.30;96831.00;;;;8294017;28;20205;-70
2024/01/13 09:13:10;;;;;;;12.57;5.47;;;;;-1.30;96824.00;;;;8295136;28;20583;-70
2024/01/13 09:17:13;;;;;;;13.47;5.37;;;;;-1.20;96826.00;;;;8296376;28;20212;-69
2024/01/13 09:21:17;;;;;;;12.60;5.13;;;;;-1.10;96834.00;;;;8298436;28;20216;-69
2024/01/13 09:25:42;;;;;;;13.00;5.07;;;;;-1.10;96839.00;;;;8299715;28;20230;-67
2024/01/13 09:29:46;;;;;;;12.43;4.80;;;;;-1.10;96834.00;;;;8294012;28;20202;-70
2024/01/13 09:33:49;;;;;;;12.53;5.40;;;;;-1.10;96831.00;;;;8294032;28;20278;-66
2024/01/13 09:37:52;;;;;;;14.57;5.43;;;;;-1.10;96834.00;;;;8295435;28;20201;-68
2024/01/13 09:41:59;;;;;;;13.27;5.70;;;;;-1.00;96839.00;;;;8293629;28;20221;-71
2024/01/13 09:46:02;;;;;;;14.70;5.63;;;;;-0.90;96840.00;;;;8296205;28;20263;-67
2024/01/13 09:50:08;;;;;;;11.20;5.03;;;;;-0.90;96837.00;;;;8292753;28;20785;-71
2024/01/13 09:54:13;;;;;;;191.17;46.97;;;;;-1.00;96838.00;;;;8290499;28;20215;-70
2024/01/13 09:58:18;;;;;;;255.37;93.47;;;;;-1.00;96823.00;;;;8289214;28;20209;-68
2024/01/13 10:02:22;;;;;;;472.70;236.23;;;;;-1.10;96815.00;;;;8292724;28;20332;-70
2024/01/13 10:06:25;;;;;;;244.43;84.10;;;;;-1.10;96815.00;;;;8293627;28;20583;-68
2024/01/13 10:10:29;;;;;;;69.00;29.13;;;;;-1.10;96807.00;;;;8312786;28;20686;-73
2024/01/13 10:14:35;;;;;;;189.80;59.20;;;;;-1.00;96802.00;;;;8332841;28;20243;-71
2024/01/13 10:18:40;;;;;;;201.80;69.40;;;;;-1.00;96792.00;;;;8334032;28;20629;-73
2024/01/13 10:22:43;;;;;;;143.50;43.23;;;;;-1.00;96791.00;;;;8332675;28;20201;-73
2024/01/13 10:26:47;;;;;;;775.37;250.40;;;;;-1.00;96790.00;;;;8331893;28;20233;-72
2024/01/13 10:30:52;;;;;;;30.33;19.30;;;;;-1.00;96783.00;;;;8331179;28;20190;-72
2024/01/13 10:34:59;;;;;;;27.10;12.50;;;;;-1.00;96799.00;;;;8332150;28;20182;-72
2024/01/13 10:39:02;;;;;;;83.13;41.23;;;;;-1.00;96783.00;;;;8332001;28;20247;-71
2024/01/13 10:43:09;;;;;;;229.57;83.90;;;;;-1.00;96792.00;;;;8331696;28;20220;-72
2024/01/13 10:47:15;;;;;;;136.00;46.23;;;;;-1.00;96776.00;;;;8331661;28;20193;-71
2024/01/13 10:51:28;;;;;;;141.60;43.80;;;;;-1.00;96763.00;;;;8331075;28;20240;-72
2024/01/13 10:55:39;;;;;;;512.33;195.23;;;;;-1.00;96759.00;;;;8330005;28;20218;-71
2024/01/13 10:59:43;;;;;;;1512.40;519.00;;;;;-1.00;96745.00;;;;8331321;28;20194;-72
2024/01/13 11:03:51;;;;;;;253.83;118.07;;;;;-1.00;96726.00;;;;8336275;28;20221;-73
2024/01/13 11:07:54;;;;;;;25.20;12.63;;;;;-1.10;96702.00;;;;8337663;28;20269;-74
2024/01/13 11:12:09;;;;;;;109.30;49.03;;;;;-1.00;96717.00;;;;8337133;28;20235;-73
2024/01/13 11:16:16;;;;;;;16.17;7.37;;;;;-1.00;96702.00;;;;8337452;28;20508;-72
2024/01/13 11:20:21;;;;;;;14.77;7.33;;;;;-0.90;96704.00;;;;8336713;28;20277;-73
2024/01/13 11:24:24;;;;;;;20.73;9.53;;;;;-0.90;96701.00;;;;8337441;28;20232;-72
2024/01/13 11:28:44;;;;;;;9.43;5.07;;;;;-0.90;96701.00;;;;8337631;28;20220;-73
2024/01/13 11:32:47;;;;;;;11.47;6.10;;;;;-0.90;96702.00;;;;8336705;28;20182;-74
2024/01/13 11:36:53;;;;;;;13.43;5.03;;;;;-0.90;96707.00;;;;8336758;28;20193;-73
2024/01/13 11:40:57;;;;;;;12.07;7.23;;;;;-1.00;96693.00;;;;8337049;28;20183;-74
2024/01/13 11:45:04;;;;;;;38.37;26.63;;;;;-1.00;96664.00;;;;8336545;28;20308;-74
2024/01/13 11:49:07;;;;;;;16.23;8.00;;;;;-1.10;96636.00;;;;8336368;28;20264;-72
2024/01/13 11:53:39;;;;;;;17.10;6.83;;;;;-1.00;96620.00;;;;8336829;28;20202;-73
2024/01/13 11:57:44;;;;;;;10.80;4.97;;;;;-0.90;96606.00;;;;8337633;28;20565;-73
2024/01/13 12:01:54;;;;;;;135.30;37.87;;;;;-0.90;96591.00;;;;8336401;28;20217;-74
2024/01/13 12:05:58;;;;;;;103.77;38.80;;;;;-0.80;96560.00;;;;8336530;28;20228;-73
2024/01/13 12:10:04;;;;;;;13.83;6.50;;;;;-0.90;96578.00;;;;8335357;28;20197;-74
2024/01/13 12:14:07;;;;;;;10.73;4.60;;;;;-0.90;96614.00;;;;8334408;28;20219;-72
2024/01/13 12:18:11;;;;;;;10.80;6.33;;;;;-1.00;96628.00;;;;8335932;28;20240;-75
2024/01/13 12:22:15;;;;;;;11.43;5.80;;;;;-1.00;96610.00;;;;8335375;28;20521;-73
2024/01/13 12:26:19;;;;;;;10.87;5.27;;;;;-1.00;96622.00;;;;8336494;28;20323;-74
2024/01/13 12:30:29;;;;;;;9.47;4.50;;;;;-1.00;96631.00;;;;8335680;28;20504;-71
2024/01/13 12:34:34;;;;;;;9.53;4.90;;;;;-1.10;96601.00;;;;8335632;28;20611;-73
2024/01/13 12:38:37;;;;;;;13.20;5.73;;;;;-1.10;96599.00;;;;8334914;28;20240;-73
2024/01/13 12:42:42;;;;;;;11.37;5.43;;;;;-1.10;96574.00;;;;8334890;28;20194;-70
2024/01/13 12:46:57;;;;;;;12.83;5.50;;;;;-1.10;96557.00;;;;8334989;28;20229;-70
2024/01/13 12:51:08;;;;;;;11.87;4.97;;;;;-1.10;96543.00;;;;8334366;28;20186;-71
2024/01/13 12:55:11;;;;;;;11.40;4.53;;;;;-1.10;96547.00;;;;8335339;28;20236;-72
2024/01/13 12:59:23;;;;;;;14.60;5.17;;;;;-1.20;96543.00;;;;8333198;28;20273;-71
2024/01/13 13:03:27;;;;;;;174.03;63.70;;;;;-1.20;96525.00;;;;8333902;28;20305;-72
2024/01/13 13:07:31;;;;;;;22.17;11.27;;;;;-1.20;96526.00;;;;8334144;28;20228;-73
2024/01/13 13:11:34;;;;;;;12.77;5.10;;;;;-1.30;96508.00;;;;8333171;28;20209;-73
2024/01/13 13:15:39;;;;;;;16.50;6.60;;;;;-1.30;96508.00;;;;8334797;28;20590;-73
2024/01/13 13:19:42;;;;;;;14.43;7.17;;;;;-1.20;96500.00;;;;8334052;28;20583;-73
2024/01/13 13:23:46;;;;;;;14.57;7.10;;;;;-1.20;96504.00;;;;8333297;28;20205;-73
2024/01/13 13:27:49;;;;;;;9.37;4.60;;;;;-1.30;96511.00;;;;8334224;28;20200;-72
2024/01/13 13:31:55;;;;;;;16.47;8.37;;;;;-1.30;96533.00;;;;8333658;28;20200;-73
2024/01/13 13:35:59;;;;;;;13.23;5.00;;;;;-1.30;96536.00;;;;8334133;28;20217;-74
2024/01/13 13:40:03;;;;;;;18.80;10.03;;;;;-1.40;96522.00;;;;8333541;28;20284;-73
2024/01/13 13:44:07;;;;;;;14.97;7.57;;;;;-1.50;96541.00;;;;8333426;28;20233;-73
2024/01/13 13:48:11;;;;;;;12.43;5.97;;;;;-1.50;96548.00;;;;8332604;28;20202;-73
2024/01/13 13:52:14;;;;;;;16.93;6.43;;;;;-1.50;96506.00;;;;8332400;28;20285;-73
2024/01/13 13:56:17;;;;;;;16.57;6.60;;;;;-1.60;96511.00;;;;8333581;28;20230;-72
2024/01/13 14:00:21;;;;;;;13.33;5.17;;;;;-1.60;96494.00;;;;8333250;28;20236;-73
2024/01/13 14:04:25;;;;;;;15.60;6.03;;;;;-1.60;96495.00;;;;8332889;28;20571;-73
2024/01/13 14:08:29;;;;;;;14.33;6.17;;;;;-1.50;96489.00;;;;8332145;28;20189;-73
2024/01/13 14:12:32;;;;;;;15.63;6.17;;;;;-1.50;96498.00;;;;8331676;28;20201;-71
2024/01/13 14:16:35;;;;;;;16.20;6.17;;;;;-1.50;96496.00;;;;8332529;28;20193;-72
2024/01/13 14:20:41;;;;;;;20.57;6.73;;;;;-1.40;96495.00;;;;8332162;28;20572;-65
2024/01/13 14:24:44;;;;;;;16.63;6.53;;;;;-1.30;96497.00;;;;8332130;28;20241;-74
2024/01/13 14:28:50;;;;;;;14.40;6.47;;;;;-1.30;96504.00;;;;8331559;28;20219;-68
2024/01/13 14:32:53;;;;;;;14.37;6.37;;;;;-1.40;96502.00;;;;8332225;28;20189;-72
2024/01/13 14:36:58;;;;;;;13.37;6.00;;;;;-1.40;96502.00;;;;8331878;28;20202;-72
2024/01/13 14:41:01;;;;;;;15.23;6.47;;;;;-1.50;96504.00;;;;8330672;28;20221;-72
2024/01/13 14:45:07;;;;;;;14.97;6.33;;;;;-1.50;96487.00;;;;8331231;28;20213;-72
2024/01/13 14:49:24;;;;;;;18.73;7.03;;;;;-1.60;96475.00;;;;8331860;28;20201;-72
2024/01/13 14:53:29;;;;;;;16.47;6.27;;;;;-1.60;96466.00;;;;8332191;28;20677;-73
2024/01/13 14:57:32;;;;;;;18.07;7.37;;;;;-1.60;96458.00;;;;8332235;28;20642;-72
2024/01/13 15:01:35;;;;;;;14.77;6.07;;;;;-1.60;96442.00;;;;8330705;28;20229;-72
2024/01/13 15:05:40;;;;;;;15.87;5.97;;;;;-1.60;96438.00;;;;8332154;28;20215;-72
2024/01/13 15:09:44;;;;;;;24.43;7.73;;;;;-1.60;96442.00;;;;8330844;28;20197;-72
2024/01/13 15:13:47;;;;;;;23.20;7.53;;;;;-1.60;96430.00;;;;8331607;28;20193;-72
2024/01/13 15:17:51;;;;;;;23.70;7.03;;;;;-1.70;96432.00;;;;8331423;28;20204;-72
2024/01/13 15:21:57;;;;;;;12.53;5.93;;;;;-1.70;96439.00;;;;8331386;28;20189;-72
2024/01/13 15:26:02;;;;;;;20.87;7.97;;;;;-1.70;96439.00;;;;8330857;28;20633;-71
2024/01/13 15:30:07;;;;;;;21.30;7.33;;;;;-1.80;96441.00;;;;8330320;28;20194;-71
2024/01/13 15:34:10;;;;;;;19.60;7.73;;;;;-1.80;96437.00;;;;8330773;28;20178;-71
2024/01/13 15:38:17;;;;;;;19.83;7.90;;;;;-1.80;96420.00;;;;8331224;28;20243;-72
2024/01/13 15:42:22;;;;;;;20.07;7.27;;;;;-1.80;96409.00;;;;8330642;28;20193;-71
2024/01/13 15:46:25;;;;;;;15.27;7.27;;;;;-1.90;96400.00;;;;8331529;28;20267;-71
2024/01/13 15:50:30;;;;;;;14.70;6.17;;;;;-1.90;96409.00;;;;8335876;28;20198;-71
2024/01/13 15:54:33;;;;;;;14.80;7.23;;;;;-2.00;96402.00;;;;8335764;28;20508;-70
2024/01/13 15:58:37;;;;;;;12.40;6.07;;;;;-2.00;96397.00;;;;8332413;28;20240;-70
2024/01/13 16:02:41;;;;;;;12.67;6.57;;;;;-2.10;96404.00;;;;8333171;28;20690;-70
2024/01/13 16:06:44;;;;;;;24.47;11.57;;;;;-2.10;96403.00;;;;8332696;28;20232;-70
2024/01/13 16:10:47;;;;;;;20.27;11.43;;;;;-2.10;96412.00;;;;8333959;28;20631;-71
2024/01/13 16:14:51;;;;;;;19.83;10.47;;;;;-2.10;96410.00;;;;8332067;28;20722;-71
2024/01/13 16:19:14;;;;;;;16.40;7.00;;;;;-2.10;96414.00;;;;8333836;28;20276;-71
2024/01/13 16:23:17;;;;;;;15.20;7.07;;;;;-2.10;96413.00;;;;8334543;28;20267;-71
2024/01/13 16:27:21;;;;;;;16.77;6.87;;;;;-2.10;96423.00;;;;8335466;28;20644;-71
2024/01/13 16:31:25;;;;;;;14.07;6.77;;;;;-2.10;96419.00;;;;8333350;28;20212;-70
2024/01/13 16:35:30;;;;;;;14.47;6.30;;;;;-2.10;96415.00;;;;8331694;28;20201;-71
2024/01/13 16:39:33;;;;;;;15.60;6.87;;;;;-2.20;96417.00;;;;8332959;28;20232;-70
2024/01/13 16:43:36;;;;;;;14.80;6.50;;;;;-2.20;96402.00;;;;8333465;28;20274;-70
2024/01/13 16:47:40;;;;;;;12.60;7.07;;;;;-2.20;96407.00;;;;8334651;28;20225;-71
2024/01/13 16:51:44;;;;;;;20.57;9.77;;;;;-2.20;96400.00;;;;8334843;28;20193;-71
2024/01/13 16:55:47;;;;;;;22.60;8.80;;;;;-2.20;96402.00;;;;8335518;28;20197;-72
2024/01/13 16:59:50;;;;;;;21.07;8.33;;;;;-2.10;96398.00;;;;8335400;28;20606;-71
2024/01/13 17:03:55;;;;;;;18.23;8.20;;;;;-2.10;96395.00;;;;8335615;28;20737;-71
2024/01/13 17:07:58;;;;;;;18.97;6.83;;;;;-2.10;96396.00;;;;8335932;28;20261;-72
2024/01/13 17:12:01;;;;;;;16.70;7.63;;;;;-2.10;96395.00;;;;8335451;28;20233;-71
2024/01/13 17:16:05;;;;;;;15.97;6.97;;;;;-2.10;96404.00;;;;8334686;28;20524;-72
2024/01/13 17:20:11;;;;;;;17.87;7.50;;;;;-2.20;96397.00;;;;8333945;28;20519;-72
2024/01/13 17:24:16;;;;;;;24.60;9.13;;;;;-2.20;96390.00;;;;8332070;28;20181;-70
2024/01/13 17:28:20;;;;;;;23.33;8.50;;;;;-2.20;96391.00;;;;8329051;28;20324;-72
2024/01/13 17:32:23;;;;;;;25.70;10.30;;;;;-2.20;96393.00;;;;8327601;28;20300;-70
2024/01/13 17:36:45;;;;;;;22.67;9.47;;;;;-2.10;96384.00;;;;8329519;28;20181;-71
2024/01/13 17:40:49;;;;;;;23.30;9.90;;;;;-2.10;96383.00;;;;8332873;28;20240;-71
2024/01/13 17:44:56;;;;;;;23.57;10.03;;;;;-2.10;96385.00;;;;8333138;28;20300;-69
2024/01/13 17:48:59;;;;;;;25.53;10.13;;;;;-2.10;96381.00;;;;8332241;28;20213;-69
2024/01/13 17:53:05;;;;;;;20.83;8.20;;;;;-2.10;96389.00;;;;8332693;28;20239;-69
2024/01/13 17:57:09;;;;;;;27.43;10.63;;;;;-2.20;96379.00;;;;8332886;28;20615;-69
2024/01/13 18:01:13;;;;;;;18.00;7.57;;;;;-2.10;96384.00;;;;8333645;28;20193;-69
2024/01/13 18:05:18;;;;;;;24.40;10.33;;;;;-2.20;96377.00;;;;8333657;28;20192;-70
2024/01/13 18:09:23;;;;;;;32.17;11.67;;;;;-2.20;96387.00;;;;8332679;28;20275;-70
2024/01/13 18:13:26;;;;;;;26.37;10.90;;;;;-2.10;96378.00;;;;8332228;28;20690;-70
2024/01/13 18:17:29;;;;;;;27.57;11.13;;;;;-2.10;96392.00;;;;8331739;28;20237;-69
2024/01/13 18:21:34;;;;;;;27.13;11.13;;;;;-2.10;96394.00;;;;8333512;28;20192;-70
2024/01/13 18:25:38;;;;;;;30.63;12.20;;;;;-2.20;96395.00;;;;8332533;28;20197;-70
2024/01/13 18:29:41;;;;;;;21.30;8.83;;;;;-2.10;96399.00;;;;8332396;28;20233;-70
2024/01/13 18:33:44;;;;;;;30.07;11.80;;;;;-2.10;96395.00;;;;8332120;28;20236;-70
2024/01/13 18:37:48;;;;;;;27.10;10.93;;;;;-2.10;96389.00;;;;8332168;28;20298;-70
2024/01/13 18:41:53;;;;;;;28.03;12.13;;;;;-2.10;96379.00;;;;8332443;28;20611;-69
2024/01/13 18:45:56;;;;;;;29.13;10.00;;;;;-2.20;96386.00;;;;8331807;28;20527;-69
2024/01/13 18:49:59;;;;;;;29.27;12.43;;;;;-2.10;96378.00;;;;8331193;28;20197;-70
2024/01/13 18:54:05;;;;;;;29.40;12.77;;;;;-2.10;96372.00;;;;8332286;28;20220;-69
2024/01/13 18:58:10;;;;;;;31.67;11.50;;;;;-2.10;96381.00;;;;8331441;28;20523;-70
2024/01/13 19:02:13;;;;;;;34.40;12.50;;;;;-2.10;96379.00;;;;8331313;28;20570;-71
2024/01/13 19:06:22;;;;;;;32.93;13.23;;;;;-2.00;96377.00;;;;8330899;28;20240;-66
2024/01/13 19:10:27;;;;;;;25.27;11.73;;;;;-2.00;96371.00;;;;8332169;28;20182;-70
2024/01/13 19:14:31;;;;;;;34.40;14.13;;;;;-2.00;96374.00;;;;8330596;28;20653;-70
2024/01/13 19:18:34;;;;;;;23.90;8.67;;;;;-2.00;96360.00;;;;8329495;28;20230;-69
2024/01/13 19:22:39;;;;;;;35.60;11.70;;;;;-2.00;96358.00;;;;8332770;28;20197;-70
2024/01/13 19:26:43;;;;;;;33.53;12.03;;;;;-2.00;96348.00;;;;8337702;28;20308;-70
2024/01/13 19:30:47;;;;;;;38.43;14.57;;;;;-2.00;96342.00;;;;8337358;28;20247;-70
2024/01/13 19:34:51;;;;;;;34.43;12.43;;;;;-2.00;96347.00;;;;8337894;28;20201;-70
2024/01/13 19:38:54;;;;;;;38.60;14.20;;;;;-2.00;96345.00;;;;8337661;28;20197;-70
2024/01/13 19:42:57;;;;;;;42.93;16.27;;;;;-2.00;96341.00;;;;8337519;28;20233;-70
2024/01/13 19:47:02;;;;;;;34.43;12.87;;;;;-2.00;96339.00;;;;8337542;28;20403;-70
2024/01/13 19:51:05;;;;;;;35.70;13.97;;;;;-2.00;96315.00;;;;8336696;28;20204;-70
2024/01/13 19:55:09;;;;;;;39.77;14.47;;;;;-2.10;96323.00;;;;8336802;28;20228;-70
2024/01/13 19:59:13;;;;;;;39.10;12.33;;;;;-2.10;96306.00;;;;8337370;28;20636;-70
2024/01/13 20:03:18;;;;;;;46.27;14.90;;;;;-2.10;96292.00;;;;8337033;28;20252;-69